Acamar — FICN — position and weather

sailwx.info

Track history (hours):
 
Tides and Currents Weather Stations Pressure Air Temp Water Temp Dewpoint Dewpoint Depression Visibility Wind Speed Wind Dir Waves Ship Positions

Acamar

Last reported at 2018-Jun-11 15:36 UTC. Time now 2018-Jun-19 06:58 UTC.
Position N 27°43' W 015°18'.

Length 184 m; draft 7 m.

Type: Ship. MMSI: 226019000.

Date/timePositionNaut miles runAvg speedWind from/ knotsBaromVisibWave heightAir tempDewpointWater temp
2018-Jun-11 15:36N 27°43' W 015°18'114.1
2018-Jun-11 15:30N 27°44' W 015°18'714.1
2018-Jun-11 15:00N 27°51' W 015°16'713.0
2018-Jun-11 14:30N 27°57' W 015°15'713.5
2018-Jun-11 14:00N 28°03' W 015°19'612.7
2018-Jun-11 13:30N 28°08' W 015°23'1 1.7
2018-Jun-11 12:59N 28°08' W 015°24'0 0.0
2018-Jun-11 12:29N 28°08' W 015°24'0 0.1
2018-Jun-11 11:59N 28°08' W 015°24'0 0.1
2018-Jun-11 11:26N 28°08' W 015°24'0 0.0
2018-Jun-11 10:59N 28°08' W 015°24'0 0.0
2018-Jun-11 10:29N 28°08' W 015°24'0 0.0
2018-Jun-11 09:59N 28°08' W 015°24'0 0.0
2018-Jun-11 09:17N 28°08' W 015°24'0 0.1
2018-Jun-11 08:59N 28°08' W 015°24'0 0.1
2018-Jun-11 08:29N 28°08' W 015°24'0 0.0
2018-Jun-11 07:50N 28°08' W 015°24'0 0.0
2018-Jun-11 07:20N 28°08' W 015°24'0 0.0
2018-Jun-11 06:53N 28°08' W 015°24'0 0.0
2018-Jun-11 06:23N 28°08' W 015°24'0 0.0
2018-Jun-11 05:53N 28°08' W 015°24'0 0.0
2018-Jun-11 05:23N 28°08' W 015°24'0 0.0
2018-Jun-11 04:38N 28°08' W 015°24'0 0.0
2018-Jun-11 04:23N 28°08' W 015°24'0 0.0
2018-Jun-11 03:56N 28°08' W 015°24'0 0.0
2018-Jun-11 03:26N 28°08' W 015°24'1 1.8
2018-Jun-11 02:57N 28°08' W 015°23'2 3.5
2018-Jun-11 02:31N 28°07' W 015°21'4 7.7
2018-Jun-11 02:00N 28°11' W 015°20'713.2
2018-Jun-11 01:30N 28°17' W 015°18'713.1
2018-Jun-11 01:01N 28°23' W 015°14'713.6
2018-Jun-11 00:30N 28°29' W 015°11'713.6
2018-Jun-11 00:01N 28°35' W 015°07'713.8
2018-Jun-10 23:31N 28°41' W 015°04'713.8
2018-Jun-10 23:00N 28°48' W 015°00'713.5
2018-Jun-10 22:30N 28°54' W 014°57'713.5
2018-Jun-10 22:00N 28°60' W 014°53'1813.3
2018-Jun-10 20:42N 29°15' W 014°45'513.3
2018-Jun-10 20:17N 29°20' W 014°42'413.2
2018-Jun-10 20:00N 29°24' W 014°40'713.4
2018-Jun-10 19:30N 29°30' W 014°36'59713.1
2018-Jun-08 22:05N 35°58' W 005°37'111.3
2018-Jun-08 22:00N 35°58' W 005°36'611.2
2018-Jun-08 21:30N 35°59' W 005°29'510.6
2018-Jun-08 21:00N 36°01' W 005°23'5 9.9
2018-Jun-08 20:31N 36°02' W 005°17'5 9.9
2018-Jun-08 20:00N 36°03' W 005°11'21211.8
2018-Jun-08 02:04N 37°14' W 001°02'112.4
2018-Jun-08 02:00N 37°15' W 001°01'612.4
2018-Jun-08 01:31N 37°19' W 000°55'712.6
2018-Jun-08 01:00N 37°23' W 000°49'612.6
2018-Jun-08 00:30N 37°27' W 000°43'612.5
2018-Jun-07 23:59N 37°31' W 000°37'612.8
2018-Jun-07 23:30N 37°36' W 000°32'612.9
2018-Jun-07 23:01N 37°41' W 000°27'713.1
2018-Jun-07 22:30N 37°47' W 000°23'713.5
2018-Jun-07 22:00N 37°52' W 000°18'713.2
2018-Jun-07 21:30N 37°58' W 000°14'713.2
2018-Jun-07 21:01N 38°04' W 000°09'713.2
2018-Jun-07 20:30N 38°09' W 000°05'713.0
2018-Jun-07 19:59N 38°15' W 000°00'713.2
2018-Jun-07 19:28N 38°21' E 000°05'613.3
2018-Jun-07 18:59N 38°26' E 000°09'  
2018-Jun-01 21:13N 39°04' E 002°28'312.7
2018-Jun-01 21:00N 39°03' E 002°31'812.6
2018-Jun-01 20:22N 38°59' E 002°40'812.7
2018-Jun-01 19:43N 38°56' E 002°50'312.9
2018-Jun-01 19:30N 38°55' E 002°53'1012.9
2018-Jun-01 18:45N 38°53' E 003°05'313.0
2018-Jun-01 18:30N 38°52' E 003°10'613.0
2018-Jun-01 18:00N 38°51' E 003°18'712.9
2018-Jun-01 17:28N 38°50' E 003°26'1412.9
2018-Jun-01 16:23N 38°47' E 003°44'  
Track history (hours):
 
Tides and Currents Weather Stations Pressure Air Temp Water Temp Dewpoint Dewpoint Depression Visibility Wind Speed Wind Dir Waves Ship Positions

Acamar

Last reported at 2018-Jun-11 15:36 UTC. Time now 2018-Jun-19 06:58 UTC.
Position N 27°43' W 015°18'.

Length 184 m; draft 7 m.

Type: Ship. MMSI: 226019000.

Date/timePositionNaut miles runAvg speedWind from/ knotsBaromVisibWave heightAir tempDewpointWater temp
2018-Jun-11 15:36N 27°43' W 015°18'114.1
2018-Jun-11 15:30N 27°44' W 015°18'714.1
2018-Jun-11 15:00N 27°51' W 015°16'713.0
2018-Jun-11 14:30N 27°57' W 015°15'713.5
2018-Jun-11 14:00N 28°03' W 015°19'612.7
2018-Jun-11 13:30N 28°08' W 015°23'1 1.7
2018-Jun-11 12:59N 28°08' W 015°24'0 0.0
2018-Jun-11 12:29N 28°08' W 015°24'0 0.1
2018-Jun-11 11:59N 28°08' W 015°24'0 0.1
2018-Jun-11 11:26N 28°08' W 015°24'0 0.0
2018-Jun-11 10:59N 28°08' W 015°24'0 0.0
2018-Jun-11 10:29N 28°08' W 015°24'0 0.0
2018-Jun-11 09:59N 28°08' W 015°24'0 0.0
2018-Jun-11 09:17N 28°08' W 015°24'0 0.1
2018-Jun-11 08:59N 28°08' W 015°24'0 0.1
2018-Jun-11 08:29N 28°08' W 015°24'0 0.0
2018-Jun-11 07:50N 28°08' W 015°24'0 0.0
2018-Jun-11 07:20N 28°08' W 015°24'0 0.0
2018-Jun-11 06:53N 28°08' W 015°24'0 0.0
2018-Jun-11 06:23N 28°08' W 015°24'0 0.0
2018-Jun-11 05:53N 28°08' W 015°24'0 0.0
2018-Jun-11 05:23N 28°08' W 015°24'0 0.0
2018-Jun-11 04:38N 28°08' W 015°24'0 0.0
2018-Jun-11 04:23N 28°08' W 015°24'0 0.0
2018-Jun-11 03:56N 28°08' W 015°24'0 0.0
2018-Jun-11 03:26N 28°08' W 015°24'1 1.8
2018-Jun-11 02:57N 28°08' W 015°23'2 3.5
2018-Jun-11 02:31N 28°07' W 015°21'4 7.7
2018-Jun-11 02:00N 28°11' W 015°20'713.2
2018-Jun-11 01:30N 28°17' W 015°18'713.1
2018-Jun-11 01:01N 28°23' W 015°14'713.6
2018-Jun-11 00:30N 28°29' W 015°11'713.6
2018-Jun-11 00:01N 28°35' W 015°07'713.8
2018-Jun-10 23:31N 28°41' W 015°04'713.8
2018-Jun-10 23:00N 28°48' W 015°00'713.5
2018-Jun-10 22:30N 28°54' W 014°57'713.5
2018-Jun-10 22:00N 28°60' W 014°53'1813.3
2018-Jun-10 20:42N 29°15' W 014°45'513.3
2018-Jun-10 20:17N 29°20' W 014°42'413.2
2018-Jun-10 20:00N 29°24' W 014°40'713.4
2018-Jun-10 19:30N 29°30' W 014°36'59713.1
2018-Jun-08 22:05N 35°58' W 005°37'111.3
2018-Jun-08 22:00N 35°58' W 005°36'611.2
2018-Jun-08 21:30N 35°59' W 005°29'510.6
2018-Jun-08 21:00N 36°01' W 005°23'5 9.9
2018-Jun-08 20:31N 36°02' W 005°17'5 9.9
2018-Jun-08 20:00N 36°03' W 005°11'21211.8
2018-Jun-08 02:04N 37°14' W 001°02'112.4
2018-Jun-08 02:00N 37°15' W 001°01'612.4
2018-Jun-08 01:31N 37°19' W 000°55'712.6
2018-Jun-08 01:00N 37°23' W 000°49'612.6
2018-Jun-08 00:30N 37°27' W 000°43'612.5
2018-Jun-07 23:59N 37°31' W 000°37'612.8
2018-Jun-07 23:30N 37°36' W 000°32'612.9
2018-Jun-07 23:01N 37°41' W 000°27'713.1
2018-Jun-07 22:30N 37°47' W 000°23'713.5
2018-Jun-07 22:00N 37°52' W 000°18'713.2
2018-Jun-07 21:30N 37°58' W 000°14'713.2
2018-Jun-07 21:01N 38°04' W 000°09'713.2
2018-Jun-07 20:30N 38°09' W 000°05'713.0
2018-Jun-07 19:59N 38°15' W 000°00'713.2
2018-Jun-07 19:28N 38°21' E 000°05'613.3
2018-Jun-07 18:59N 38°26' E 000°09'  
2018-Jun-01 21:13N 39°04' E 002°28'312.7
2018-Jun-01 21:00N 39°03' E 002°31'812.6
2018-Jun-01 20:22N 38°59' E 002°40'812.7
2018-Jun-01 19:43N 38°56' E 002°50'312.9
2018-Jun-01 19:30N 38°55' E 002°53'1012.9
2018-Jun-01 18:45N 38°53' E 003°05'313.0
2018-Jun-01 18:30N 38°52' E 003°10'613.0
2018-Jun-01 18:00N 38°51' E 003°18'712.9
2018-Jun-01 17:28N 38°50' E 003°26'1412.9
2018-Jun-01 16:23N 38°47' E 003°44'  

Dump ship's entire track history